createdAt,value
2024-02-29T00:01:23.844Z,99463.38
2024-02-29T00:04:41.373Z,99459.17
2024-02-29T00:08:00.673Z,99459.08
2024-02-29T00:11:18.266Z,99453.52
2024-02-29T00:14:36.014Z,99445.51
2024-02-29T00:17:53.808Z,99457.79
2024-02-29T00:21:12.205Z,99458.00
2024-02-29T00:24:29.773Z,99463.18
2024-02-29T00:27:47.472Z,99462.75
2024-02-29T00:31:05.614Z,99453.73
2024-02-29T00:34:23.370Z,99439.63
2024-02-29T00:37:41.195Z,99453.36
2024-02-29T00:40:58.749Z,99463.44
2024-02-29T00:44:16.492Z,99457.20
2024-02-29T00:47:34.337Z,99459.00
2024-02-29T00:50:52.165Z,99453.56
2024-02-29T00:54:09.858Z,99474.60
2024-02-29T00:57:27.467Z,99466.44
2024-02-29T01:00:45.149Z,99463.23
2024-02-29T01:04:02.872Z,99459.49
2024-02-29T01:07:21.016Z,99463.67
2024-02-29T01:10:38.897Z,99460.41
2024-02-29T01:13:56.849Z,99453.69
2024-02-29T01:17:14.220Z,99453.73
2024-02-29T01:20:32.808Z,99463.13
2024-02-29T01:23:50.412Z,99455.98
2024-02-29T01:27:07.942Z,99445.63
2024-02-29T01:30:26.850Z,99452.20
2024-02-29T01:33:44.559Z,99459.97
2024-02-29T01:37:02.287Z,99458.58
2024-02-29T01:40:21.786Z,99447.91
2024-02-29T01:43:39.354Z,99433.77
2024-02-29T01:46:56.927Z,99453.14
2024-02-29T01:50:19.104Z,99455.91
2024-02-29T01:53:36.746Z,99435.02
2024-02-29T01:56:54.449Z,99464.15
2024-02-29T02:00:14.620Z,99458.58
2024-02-29T02:03:32.570Z,99450.16
2024-02-29T02:06:51.183Z,99434.74
2024-02-29T02:10:09.590Z,99448.20
2024-02-29T02:13:27.304Z,99456.08
2024-02-29T02:16:45.038Z,99444.44
2024-02-29T02:20:03.133Z,99456.38
2024-02-29T02:23:20.866Z,99442.84
2024-02-29T02:26:38.432Z,99441.19
2024-02-29T02:29:56.235Z,99447.47
2024-02-29T02:33:14.332Z,99437.67
2024-02-29T02:36:31.766Z,99448.56
2024-02-29T02:39:49.872Z,99445.98
2024-02-29T02:43:07.556Z,99438.96
2024-02-29T02:46:25.694Z,99442.33
2024-02-29T02:49:44.036Z,99427.98
2024-02-29T02:53:01.625Z,99442.33
2024-02-29T02:56:19.303Z,99435.02
2024-02-29T02:59:37.893Z,99437.13
2024-02-29T03:02:55.425Z,99444.28
2024-02-29T03:06:15.739Z,99434.17
2024-02-29T03:09:33.601Z,99446.26
2024-02-29T03:12:52.762Z,99447.66
2024-02-29T03:16:11.120Z,99446.53
2024-02-29T03:19:28.703Z,99454.69
2024-02-29T03:22:47.781Z,99459.28
2024-02-29T03:26:06.307Z,99442.90
2024-02-29T03:29:24.437Z,99466.47
2024-02-29T03:32:42.122Z,99460.28
2024-02-29T03:35:59.912Z,99454.38
2024-02-29T03:39:17.790Z,99455.49
2024-02-29T03:42:35.611Z,99444.84
2024-02-29T03:45:53.159Z,99449.47
2024-02-29T03:49:14.212Z,99451.66
2024-02-29T03:52:31.893Z,99442.02
2024-02-29T03:55:50.121Z,99441.47
2024-02-29T03:59:07.876Z,99433.32
2024-02-29T04:02:25.639Z,99436.14
2024-02-29T04:05:43.243Z,99425.81
2024-02-29T04:09:00.999Z,99438.84
2024-02-29T04:12:19.427Z,99419.88
2024-02-29T04:15:37.163Z,99425.81
2024-02-29T04:18:54.515Z,99435.30
2024-02-29T04:22:12.487Z,99436.18
2024-02-29T04:25:30.310Z,99430.27
2024-02-29T04:28:47.839Z,99437.57
2024-02-29T04:32:05.784Z,99419.33
2024-02-29T04:35:23.605Z,99412.06
2024-02-29T04:38:40.654Z,99415.19
2024-02-29T04:41:55.913Z,99417.70
2024-02-29T04:45:17.796Z,99417.13
2024-02-29T04:48:36.488Z,99415.70
2024-02-29T04:51:54.248Z,99420.77
2024-02-29T04:55:12.739Z,99410.80
2024-02-29T04:58:30.686Z,99423.85
2024-02-29T05:01:48.576Z,99423.85
2024-02-29T05:05:08.349Z,99412.25
2024-02-29T05:08:25.836Z,99433.27
2024-02-29T05:11:43.665Z,99426.40
2024-02-29T05:15:01.566Z,99422.88
2024-02-29T05:18:20.085Z,99414.49
2024-02-29T05:21:38.344Z,99423.03
2024-02-29T05:24:55.962Z,99424.27
2024-02-29T05:28:14.113Z,99432.52
2024-02-29T05:31:31.848Z,99419.37
2024-02-29T05:34:49.354Z,99429.21
2024-02-29T05:38:08.242Z,99431.61
2024-02-29T05:41:25.886Z,99449.96
2024-02-29T05:44:43.859Z,99450.11
2024-02-29T05:48:01.323Z,99442.59
2024-02-29T05:51:19.027Z,99442.78
2024-02-29T05:54:36.647Z,99455.92
2024-02-29T05:57:54.395Z,99448.34
2024-02-29T06:01:12.882Z,99448.39
2024-02-29T06:04:30.945Z,99445.95
2024-02-29T06:07:48.783Z,99454.41
2024-02-29T06:11:06.460Z,99452.56
2024-02-29T06:14:26.692Z,99455.66
2024-02-29T06:17:44.475Z,99452.17
2024-02-29T06:21:02.426Z,99445.45
2024-02-29T06:24:21.169Z,99450.86
2024-02-29T06:27:41.667Z,99436.60
2024-02-29T06:30:59.602Z,99450.94
2024-02-29T06:34:19.295Z,99449.39
2024-02-29T06:37:37.069Z,99442.81
2024-02-29T06:40:55.599Z,99448.69
2024-02-29T06:44:14.197Z,99441.54
2024-02-29T06:47:31.739Z,99449.12
2024-02-29T06:50:49.681Z,99454.72
2024-02-29T06:54:07.586Z,99443.52
2024-02-29T06:57:25.305Z,99436.36
2024-02-29T07:00:43.255Z,99454.72
2024-02-29T07:04:01.074Z,99442.66
2024-02-29T07:07:18.996Z,99453.27
2024-02-29T07:10:36.921Z,99440.97
2024-02-29T07:13:54.521Z,99448.78
2024-02-29T07:17:12.472Z,99433.12
2024-02-29T07:20:30.340Z,99448.23
2024-02-29T07:23:47.894Z,99444.68
2024-02-29T07:27:05.696Z,99443.86
2024-02-29T07:30:23.682Z,99439.49
2024-02-29T07:33:41.661Z,99440.06
2024-02-29T07:36:59.688Z,99437.24
2024-02-29T07:40:18.637Z,99444.44
2024-02-29T07:43:36.357Z,99438.52
2024-02-29T07:46:53.888Z,99433.84
2024-02-29T07:50:12.949Z,99413.45
2024-02-29T07:53:31.465Z,99417.57
2024-02-29T07:56:52.321Z,99423.16
2024-02-29T08:00:12.120Z,99408.88
2024-02-29T08:03:29.636Z,99413.77
2024-02-29T08:06:47.457Z,99418.09
2024-02-29T08:10:05.297Z,99421.84
2024-02-29T08:13:23.075Z,99419.30
2024-02-29T08:16:40.841Z,99395.19
2024-02-29T08:19:58.519Z,99400.92
2024-02-29T08:23:17.792Z,99394.16
2024-02-29T08:26:35.544Z,99382.66
2024-02-29T08:29:53.071Z,99392.33
2024-02-29T08:33:10.927Z,99395.60
2024-02-29T08:36:30.856Z,99398.64
2024-02-29T08:39:48.423Z,99383.02
2024-02-29T08:43:05.671Z,99390.86
2024-02-29T08:46:23.558Z,99369.75
2024-02-29T08:49:41.316Z,99389.11
2024-02-29T08:52:59.412Z,99369.34
2024-02-29T08:56:17.187Z,99363.25
2024-02-29T08:59:34.772Z,99369.30
2024-02-29T09:02:52.597Z,99369.96
2024-02-29T09:06:10.436Z,99368.83
2024-02-29T09:09:30.194Z,99366.73
2024-02-29T09:12:48.920Z,99366.54
2024-02-29T09:16:06.517Z,99372.06
2024-02-29T09:19:24.406Z,99379.23
2024-02-29T09:22:42.686Z,99372.77
2024-02-29T09:26:00.539Z,99356.27
2024-02-29T09:29:18.024Z,99353.42
2024-02-29T09:32:35.683Z,99365.81
2024-02-29T09:35:55.330Z,99361.70
2024-02-29T09:39:13.142Z,99362.77
2024-02-29T09:42:31.270Z,99346.02
2024-02-29T09:45:50.763Z,99343.80
2024-02-29T09:49:10.183Z,99323.19
2024-02-29T09:52:28.295Z,99312.86
2024-02-29T09:55:46.703Z,99329.42
2024-02-29T09:59:08.695Z,99321.88
2024-02-29T10:02:26.557Z,99318.42
2024-02-29T10:05:44.347Z,99312.09
2024-02-29T10:09:08.899Z,99316.41
2024-02-29T10:12:31.138Z,99288.64
2024-02-29T10:15:50.271Z,99303.56
2024-02-29T10:19:09.389Z,99298.45
2024-02-29T10:22:30.008Z,99315.19
2024-02-29T10:25:53.987Z,99311.84
2024-02-29T10:29:16.932Z,99302.11
2024-02-29T10:32:34.584Z,99310.15
2024-02-29T10:35:56.515Z,99307.52
2024-02-29T10:39:17.442Z,99302.09
2024-02-29T10:42:35.316Z,99302.77
2024-02-29T10:45:56.463Z,99286.01
2024-02-29T10:49:20.008Z,99278.29
2024-02-29T10:52:40.858Z,99266.27
2024-02-29T10:56:03.260Z,99265.34
2024-02-29T10:59:24.857Z,99269.91
2024-02-29T11:03:07.741Z,99268.08
2024-02-29T11:06:24.998Z,99265.70
2024-02-29T11:09:47.031Z,99263.19
2024-02-29T11:13:14.648Z,99254.49
2024-02-29T11:16:32.714Z,99244.22
2024-02-29T11:19:54.868Z,99242.05
2024-02-29T11:23:18.156Z,99233.20
2024-02-29T11:26:40.795Z,99234.97
2024-02-29T11:30:06.830Z,99236.98
2024-02-29T11:33:27.708Z,99231.69
2024-02-29T11:36:47.841Z,99230.36
2024-02-29T11:40:15.381Z,99221.73
2024-02-29T11:43:33.743Z,99220.93
2024-02-29T11:47:00.624Z,99215.41
2024-02-29T11:50:21.312Z,99216.05
2024-02-29T11:53:45.083Z,99210.69
2024-02-29T11:57:04.673Z,99210.42
2024-02-29T12:00:27.895Z,99203.80
2024-02-29T12:03:46.572Z,99194.03
2024-02-29T12:07:05.042Z,99176.86
2024-02-29T12:10:23.374Z,99189.00
2024-02-29T12:13:40.859Z,99180.95
2024-02-29T12:16:58.816Z,99181.52
2024-02-29T12:20:19.141Z,99174.79
2024-02-29T12:23:39.426Z,99179.81
2024-02-29T12:26:58.765Z,99165.26
2024-02-29T12:30:19.395Z,99165.13
2024-02-29T12:33:37.349Z,99153.34
2024-02-29T12:36:57.018Z,99160.14
2024-02-29T12:40:18.028Z,99153.87
2024-02-29T12:43:35.837Z,99164.20
2024-02-29T12:47:00.285Z,99155.49
2024-02-29T12:50:19.091Z,99152.95
2024-02-29T12:53:36.768Z,99135.03
2024-02-29T12:56:56.258Z,99136.45
2024-02-29T13:00:17.115Z,99113.20
2024-02-29T13:03:34.905Z,99125.44
2024-02-29T13:06:54.882Z,99118.87
2024-02-29T13:10:15.745Z,99123.94
2024-02-29T13:13:33.463Z,99106.54
2024-02-29T13:16:54.144Z,99108.39
2024-02-29T13:20:13.263Z,99091.42
2024-02-29T13:23:31.340Z,99083.34
2024-02-29T13:26:49.461Z,99080.17
2024-02-29T13:30:11.186Z,99077.58
2024-02-29T13:33:28.923Z,99076.42
2024-02-29T13:36:46.731Z,99068.75
2024-02-29T13:40:05.507Z,99073.94
2024-02-29T13:43:23.143Z,99071.13
2024-02-29T13:46:41.175Z,99069.91
2024-02-29T13:49:58.931Z,99063.73
2024-02-29T13:53:16.888Z,99057.34
2024-02-29T13:56:36.270Z,99059.28
2024-02-29T13:59:56.277Z,99057.47
2024-02-29T14:03:14.297Z,99051.95
2024-02-29T14:06:34.937Z,99054.02
2024-02-29T14:09:53.607Z,99046.64
2024-02-29T14:13:11.960Z,99039.20
2024-02-29T14:16:29.595Z,99047.61
2024-02-29T14:19:47.309Z,99048.84
2024-02-29T14:23:05.726Z,99046.31
2024-02-29T14:26:24.205Z,99029.61
2024-02-29T14:29:41.745Z,99046.19
2024-02-29T14:33:01.215Z,99044.38
2024-02-29T14:36:22.021Z,99037.67
2024-02-29T14:39:39.723Z,99038.89
2024-02-29T14:42:57.628Z,99034.94
2024-02-29T14:46:15.315Z,99035.10
2024-02-29T14:49:33.245Z,99045.08
2024-02-29T14:52:52.427Z,99034.63
2024-02-29T14:56:10.318Z,99034.53
2024-02-29T14:59:27.717Z,99030.93
2024-02-29T15:02:45.463Z,99030.95
2024-02-29T15:06:02.897Z,99029.59
2024-02-29T15:09:20.606Z,99033.46
2024-02-29T15:12:38.178Z,99029.97
2024-02-29T15:15:56.294Z,99029.31
2024-02-29T15:19:14.026Z,99024.91
2024-02-29T15:22:33.204Z,99025.83
2024-02-29T15:25:51.616Z,99020.84
2024-02-29T15:29:09.376Z,99019.59
2024-02-29T15:32:27.046Z,99022.09
2024-02-29T15:35:44.714Z,99025.99
2024-02-29T15:39:02.477Z,99013.37
2024-02-29T15:42:21.620Z,99009.53
2024-02-29T15:45:38.970Z,99009.25
2024-02-29T15:48:56.931Z,99012.86
2024-02-29T15:52:15.428Z,99009.49
2024-02-29T15:55:33.063Z,99012.25
2024-02-29T15:58:50.999Z,99009.25
2024-02-29T16:02:08.733Z,99002.47
2024-02-29T16:05:27.541Z,99008.02
2024-02-29T16:08:45.129Z,99014.12
2024-02-29T16:12:03.787Z,99011.25
2024-02-29T16:15:21.579Z,99012.17
2024-02-29T16:18:39.104Z,99006.25
2024-02-29T16:21:56.645Z,99005.95
2024-02-29T16:25:15.524Z,99006.30
2024-02-29T16:28:33.362Z,99002.65
2024-02-29T16:31:51.107Z,99007.36
2024-02-29T16:35:09.138Z,99007.02
2024-02-29T16:38:27.400Z,99011.02
2024-02-29T16:41:45.693Z,99023.75
2024-02-29T16:45:03.530Z,99011.38
2024-02-29T16:48:21.430Z,99006.72
2024-02-29T16:51:38.950Z,99020.27
2024-02-29T16:54:56.835Z,99007.72
2024-02-29T16:58:14.918Z,99003.39
2024-02-29T17:01:32.546Z,99016.41
2024-02-29T17:04:51.886Z,99018.27
2024-02-29T17:08:10.321Z,99007.22
2024-02-29T17:11:27.988Z,99013.41
2024-02-29T17:14:45.775Z,99030.77
2024-02-29T17:18:03.364Z,99012.24
2024-02-29T17:21:22.957Z,99021.39
2024-02-29T17:24:42.354Z,99020.30
2024-02-29T17:27:59.935Z,99029.70
2024-02-29T17:31:17.524Z,99022.00
2024-02-29T17:34:35.210Z,99022.15
2024-02-29T17:37:52.958Z,99023.81
2024-02-29T17:41:10.971Z,99026.00
2024-02-29T17:44:28.819Z,99020.97
2024-02-29T17:47:47.623Z,99015.30
2024-02-29T17:51:04.752Z,99011.95
2024-02-29T17:54:22.779Z,99011.11
2024-02-29T17:57:40.318Z,99009.73
2024-02-29T18:00:59.482Z,99001.22
2024-02-29T18:04:17.139Z,99002.13
2024-02-29T18:07:38.280Z,99001.16
2024-02-29T18:10:54.755Z,98995.45
2024-02-29T18:14:12.423Z,98995.70
2024-02-29T18:17:30.408Z,98997.94
2024-02-29T18:20:48.316Z,98988.41
2024-02-29T18:24:05.949Z,98992.05
2024-02-29T18:27:23.650Z,98991.72
2024-02-29T18:30:42.365Z,98995.88
2024-02-29T18:34:00.125Z,98988.80
2024-02-29T18:37:18.731Z,98984.99
2024-02-29T18:40:37.203Z,98986.55
2024-02-29T18:43:54.916Z,98980.70
2024-02-29T18:47:13.210Z,98976.02
2024-02-29T18:50:30.915Z,98967.84
2024-02-29T18:53:48.972Z,98965.34
2024-02-29T18:57:06.872Z,98961.36
2024-02-29T19:00:26.193Z,98960.94
2024-02-29T19:03:43.638Z,98954.08
2024-02-29T19:07:01.743Z,98959.92
2024-02-29T19:10:20.665Z,98950.19
2024-02-29T19:13:38.017Z,98948.53
2024-02-29T19:16:55.807Z,98927.50
2024-02-29T19:20:15.446Z,98943.58
2024-02-29T19:23:33.222Z,98935.03
2024-02-29T19:26:51.829Z,98936.55
2024-02-29T19:30:10.741Z,98936.59
2024-02-29T19:33:28.415Z,98936.13
2024-02-29T19:36:45.935Z,98927.03
2024-02-29T19:40:03.881Z,98926.81
2024-02-29T19:43:24.201Z,98926.74
2024-02-29T19:46:41.869Z,98931.20
2024-02-29T19:49:59.523Z,98934.50
2024-02-29T19:53:18.000Z,98925.09
2024-02-29T19:56:35.609Z,98929.28
2024-02-29T19:59:53.318Z,98928.95
2024-02-29T20:03:11.532Z,98926.62
2024-02-29T20:06:29.348Z,98918.30
2024-02-29T20:09:47.795Z,98925.44
2024-02-29T20:13:05.819Z,98923.79
2024-02-29T20:16:23.860Z,98927.08
2024-02-29T20:19:42.193Z,98926.02
2024-02-29T20:23:01.303Z,98906.95
2024-02-29T20:26:24.933Z,98892.59
2024-02-29T20:29:43.076Z,98890.61
2024-02-29T20:33:01.120Z,98904.55
2024-02-29T20:36:19.373Z,98875.48
2024-02-29T20:39:37.272Z,98893.83
2024-02-29T20:42:54.975Z,98906.23
2024-02-29T20:46:13.096Z,98895.65
2024-02-29T20:49:31.360Z,98897.23
2024-02-29T20:52:49.798Z,98896.63
2024-02-29T20:56:08.017Z,98894.13
2024-02-29T20:59:28.054Z,98882.69
2024-02-29T21:02:48.252Z,98878.98
2024-02-29T21:06:06.198Z,98876.39
2024-02-29T21:09:24.829Z,98885.36
2024-02-29T21:12:42.439Z,98874.41
2024-02-29T21:16:00.883Z,98870.44
2024-02-29T21:19:20.508Z,98852.81
2024-02-29T21:22:38.094Z,98858.98
2024-02-29T21:25:55.922Z,98851.61
2024-02-29T21:29:13.440Z,98829.50
2024-02-29T21:32:31.387Z,98844.63
2024-02-29T21:35:50.925Z,98817.75
2024-02-29T21:39:10.237Z,98835.58
2024-02-29T21:42:27.698Z,98827.76
2024-02-29T21:45:45.237Z,98825.09
2024-02-29T21:49:03.136Z,98830.64
2024-02-29T21:52:20.986Z,98829.58
2024-02-29T21:55:38.608Z,98827.59
2024-02-29T21:58:58.705Z,98813.50
2024-02-29T22:02:17.365Z,98801.48
2024-02-29T22:05:35.307Z,98822.06
2024-02-29T22:08:53.802Z,98815.38
2024-02-29T22:12:12.087Z,98826.14
2024-02-29T22:15:29.929Z,98822.28
2024-02-29T22:18:48.065Z,98805.67
2024-02-29T22:22:05.860Z,98806.41
2024-02-29T22:25:26.992Z,98819.05
2024-02-29T22:28:44.575Z,98807.03
2024-02-29T22:32:04.108Z,98802.33
2024-02-29T22:35:22.892Z,98802.11
2024-02-29T22:38:41.039Z,98803.34
2024-02-29T22:42:02.205Z,98799.31
2024-02-29T22:45:19.755Z,98781.82
2024-02-29T22:48:38.211Z,98798.31
2024-02-29T22:51:56.717Z,98795.64
2024-02-29T22:55:15.695Z,98777.96
2024-02-29T22:58:33.437Z,98774.75
2024-02-29T23:01:51.674Z,98758.59
2024-02-29T23:05:09.907Z,98765.27
2024-02-29T23:08:27.496Z,98758.38
2024-02-29T23:11:45.879Z,98754.11
2024-02-29T23:15:03.286Z,98751.75
2024-02-29T23:18:20.744Z,98753.89
2024-02-29T23:21:38.551Z,98751.13
2024-02-29T23:24:56.197Z,98745.74
2024-02-29T23:28:14.508Z,98730.83
2024-02-29T23:31:32.488Z,98746.59
2024-02-29T23:34:50.239Z,98722.58
2024-02-29T23:38:07.653Z,98730.97
2024-02-29T23:41:26.252Z,98715.17
2024-02-29T23:44:43.979Z,98726.77
2024-02-29T23:48:01.549Z,98727.79
2024-02-29T23:51:19.322Z,98711.42
2024-02-29T23:54:36.781Z,98726.71
2024-02-29T23:57:54.622Z,98722.58
